Time;durP1;ratioP1;P1;durP2;ratioP2;P2;SDS_P1;SDS_P2;PMS_P1;PMS_P2;Temp;Humidity;BMP_temperature;BMP_pressure;BME280_temperature;BME280_humidity;BME280_pressure;Samples;Min_cycle;Max_cycle;Signal;HPM_P1;HPM_P2
2021/07/17 00:00:33;;;;;;;27.70;16.52;;;;;;;21.34;70.70;98392.56;5091867;28;20020;-73
2021/07/17 00:03:00;;;;;;;24.35;16.77;;;;;;;21.34;70.70;98400.94;5091694;28;20050;-74
2021/07/17 00:05:27;;;;;;;24.05;16.67;;;;;;;21.32;70.69;98394.09;5091639;28;20734;-73
2021/07/17 00:07:52;;;;;;;24.05;16.45;;;;;;;21.34;70.75;98394.53;5090556;28;20021;-74
2021/07/17 00:10:21;;;;;;;25.20;16.00;;;;;;;21.33;70.79;98390.13;5092098;28;20052;-73
2021/07/17 00:12:47;;;;;;;27.42;17.15;;;;;;;21.30;71.17;98400.06;5091841;28;20024;-74
2021/07/17 00:15:15;;;;;;;23.90;16.02;;;;;;;21.27;71.27;98398.81;5092271;28;20020;-74
2021/07/17 00:17:42;;;;;;;22.55;16.77;;;;;;;21.28;71.39;98399.63;5092117;28;20020;-74
2021/07/17 00:20:10;;;;;;;22.70;16.60;;;;;;;21.30;71.04;98400.06;5092190;28;20024;-73
2021/07/17 00:22:35;;;;;;;20.58;15.43;;;;;;;21.31;71.20;98398.88;5090572;28;20473;-74
2021/07/17 00:25:05;;;;;;;23.65;15.40;;;;;;;21.29;71.34;98394.84;5090539;28;20086;-72
2021/07/17 00:27:31;;;;;;;24.90;17.08;;;;;;;21.29;71.36;98397.63;5091978;28;20028;-72
2021/07/17 00:29:56;;;;;;;20.60;15.50;;;;;;;21.26;71.41;98388.03;5092006;28;20043;-73
2021/07/17 00:32:21;;;;;;;24.63;15.45;;;;;;;21.26;71.36;98379.66;5091952;28;20028;-72
2021/07/17 00:34:47;;;;;;;26.13;16.52;;;;;;;21.26;71.44;98379.66;5091763;28;20409;-74
2021/07/17 00:37:12;;;;;;;28.63;17.45;;;;;;;21.26;71.40;98390.81;5092318;28;20377;-74
2021/07/17 00:39:37;;;;;;;22.58;16.05;;;;;;;21.27;71.47;98386.84;5091762;28;20036;-73
2021/07/17 00:42:03;;;;;;;27.98;17.27;;;;;;;21.27;71.45;98382.06;5091880;28;20040;-73
2021/07/17 00:44:28;;;;;;;24.00;16.20;;;;;;;21.26;71.63;98379.66;5091828;28;20035;-74
2021/07/17 00:46:57;;;;;;;19.45;14.57;;;;;;;21.27;71.58;98376.50;5091558;28;20043;-72
2021/07/17 00:49:27;;;;;;;22.60;16.77;;;;;;;21.27;71.57;98373.69;5091737;28;20051;-73
2021/07/17 00:51:52;;;;;;;24.17;16.50;;;;;;;21.22;71.62;98379.59;5090680;28;20111;-73
2021/07/17 00:54:19;;;;;;;24.05;16.38;;;;;;;21.18;71.72;98377.91;5091671;28;20127;-72
2021/07/17 00:56:47;;;;;;;22.50;16.63;;;;;;;21.14;71.61;98382.63;5095432;28;20028;-72
2021/07/17 00:59:15;;;;;;;24.80;15.02;;;;;;;21.12;71.70;98380.22;5095732;28;20431;-74
2021/07/17 01:01:42;;;;;;;26.13;15.60;;;;;;;21.14;72.06;98383.44;5095330;28;20036;-73
2021/07/17 01:04:08;;;;;;;31.63;23.90;;;;;;;21.13;71.80;98387.41;5095668;28;20032;-73
2021/07/17 01:06:33;;;;;;;24.13;17.48;;;;;;;21.08;71.98;98384.91;5095308;28;20028;-74
2021/07/17 01:08:59;;;;;;;26.42;16.40;;;;;;;21.08;72.26;98388.50;5095067;28;20024;-73
2021/07/17 01:11:24;;;;;;;24.45;17.50;;;;;;;21.04;72.03;98389.59;5095170;28;20024;-73
2021/07/17 01:13:50;;;;;;;23.00;16.77;;;;;;;21.00;71.92;98394.31;5095128;28;20024;-74
2021/07/17 01:16:15;;;;;;;25.50;16.48;;;;;;;21.01;72.33;98395.91;5095143;28;20024;-73
2021/07/17 01:18:41;;;;;;;25.92;16.55;;;;;;;21.02;72.33;98394.75;5094589;28;20032;-74
2021/07/17 01:21:08;;;;;;;23.98;16.88;;;;;;;21.04;72.28;98398.75;5095026;28;20024;-73
2021/07/17 01:23:34;;;;;;;23.10;15.77;;;;;;;21.05;72.52;98394.78;5095454;28;20020;-74
2021/07/17 01:25:59;;;;;;;23.35;16.05;;;;;;;21.04;72.40;98390.41;5094945;28;20020;-74
2021/07/17 01:28:25;;;;;;;24.45;15.27;;;;;;;21.02;72.19;98395.53;5094657;28;20024;-73
2021/07/17 01:30:52;;;;;;;22.08;16.10;;;;;;;21.02;72.28;98392.75;5094616;28;20107;-74
2021/07/17 01:33:17;;;;;;;19.90;15.13;;;;;;;21.00;72.46;98395.09;5094823;28;20036;-74
2021/07/17 01:35:44;;;;;;;22.88;15.77;;;;;;;21.00;72.55;98392.31;5094556;28;20028;-75
2021/07/17 01:38:09;;;;;;;20.98;15.85;;;;;;;20.99;72.62;98395.47;5094509;28;20020;-75
2021/07/17 01:40:35;;;;;;;21.92;15.27;;;;;;;20.96;72.39;98380.31;5093179;28;20031;-73
2021/07/17 01:43:02;;;;;;;22.13;15.95;;;;;;;20.95;72.32;98396.22;5092864;28;20044;-74
2021/07/17 01:45:31;;;;;;;25.58;16.27;;;;;;;20.94;72.74;98400.16;5094638;28;20024;-74
2021/07/17 01:47:57;;;;;;;20.08;14.82;;;;;;;20.93;72.30;98392.19;5094437;28;20516;-73
2021/07/17 01:50:30;;;;;;;23.17;15.07;;;;;;;20.96;72.58;98383.88;5094817;28;20040;-73
2021/07/17 01:52:57;;;;;;;22.10;15.27;;;;;;;21.01;72.82;98390.34;5094859;28;20086;-73
2021/07/17 01:55:23;;;;;;;25.25;15.10;;;;;;;21.02;72.64;98391.94;5091831;28;20028;-73
2021/07/17 01:57:49;;;;;;;21.10;15.13;;;;;;;21.03;72.51;98380.41;5092149;28;20043;-74
2021/07/17 02:00:17;;;;;;;21.17;15.20;;;;;;;21.01;72.30;98384.75;5093388;28;20023;-74
2021/07/17 02:02:43;;;;;;;25.35;16.10;;;;;;;20.98;72.55;98389.09;5092690;28;20092;-75
2021/07/17 02:05:09;;;;;;;22.20;15.60;;;;;;;20.97;72.51;98387.50;5092262;28;20047;-75
2021/07/17 02:07:35;;;;;;;21.15;15.77;;;;;;;20.91;72.27;98386.16;5109651;28;20019;-74
2021/07/17 02:10:09;;;;;;;24.15;15.88;;;;;;;20.83;72.52;98393.56;5103280;28;20087;-73
2021/07/17 02:12:37;;;;;;;24.25;16.05;;;;;;;20.81;72.30;98393.13;5105247;28;20031;-73
2021/07/17 02:15:03;;;;;;;22.48;15.00;;;;;;;20.82;72.90;98403.91;5106142;28;20028;-74
2021/07/17 02:17:29;;;;;;;21.98;16.48;;;;;;;20.85;72.79;98399.56;5104125;28;20046;-73
2021/07/17 02:19:54;;;;;;;28.27;16.65;;;;;;;20.87;72.98;98391.66;5102062;27;20023;-73
2021/07/17 02:22:19;;;;;;;24.27;15.68;;;;;;;20.91;72.90;98400.91;5103019;28;20422;-73
2021/07/17 02:24:45;;;;;;;21.65;15.65;;;;;;;20.95;72.71;98395.41;5102959;28;20031;-73
2021/07/17 02:27:11;;;;;;;24.80;15.18;;;;;;;21.00;72.83;98403.47;5102092;28;20063;-73
2021/07/17 02:29:36;;;;;;;22.17;14.52;;;;;;;21.03;72.67;98402.72;5103923;28;20023;-73
2021/07/17 02:32:01;;;;;;;21.85;15.20;;;;;;;21.09;72.73;98394.88;5102372;28;20028;-73
2021/07/17 02:34:27;;;;;;;21.77;15.10;;;;;;;21.15;72.70;98392.59;5102434;28;20024;-73
2021/07/17 02:36:52;;;;;;;24.73;14.82;;;;;;;21.15;72.71;98395.38;5103732;28;20120;-73
2021/07/17 02:39:17;;;;;;;25.92;15.73;;;;;;;21.15;72.63;98396.22;5101727;28;20016;-73
2021/07/17 02:41:43;;;;;;;23.58;15.18;;;;;;;21.16;72.65;98392.25;5102892;28;20028;-73
2021/07/17 02:44:08;;;;;;;27.02;15.73;;;;;;;21.19;72.64;98387.91;5102009;28;20582;-73
2021/07/17 02:46:34;;;;;;;22.27;15.55;;;;;;;21.15;72.31;98387.00;5101438;28;20083;-73
2021/07/17 02:48:59;;;;;;;25.38;14.88;;;;;;;21.15;72.53;98385.06;5103122;28;20030;-73
2021/07/17 02:51:25;;;;;;;23.58;15.85;;;;;;;21.15;72.59;98387.84;5102203;28;20020;-73
2021/07/17 02:53:51;;;;;;;27.55;16.00;;;;;;;21.17;72.55;98393.03;5101206;28;20050;-73
2021/07/17 02:56:16;;;;;;;23.52;15.40;;;;;;;21.16;72.35;98392.25;5102838;28;20039;-73
2021/07/17 02:58:42;;;;;;;25.15;15.73;;;;;;;21.14;72.53;98399.34;5101492;28;20466;-73
2021/07/17 03:01:07;;;;;;;29.02;16.65;;;;;;;21.06;72.34;98393.63;5101655;28;20156;-73
2021/07/17 03:03:32;;;;;;;25.48;16.27;;;;;;;21.03;72.23;98402.72;5102725;28;20505;-74
2021/07/17 03:05:58;;;;;;;25.02;16.63;;;;;;;21.00;72.36;98394.31;5101092;28;20068;-73
2021/07/17 03:08:23;;;;;;;27.25;15.88;;;;;;;21.00;72.37;98392.31;5102039;28;20011;-73
2021/07/17 03:10:50;;;;;;;25.92;15.60;;;;;;;20.99;72.63;98393.47;5102458;28;20386;-73
2021/07/17 03:13:16;;;;;;;24.55;15.68;;;;;;;20.95;72.47;98389.84;5101128;28;20058;-74
2021/07/17 03:15:42;;;;;;;18.55;15.02;;;;;;;20.89;72.62;98391.31;5102700;28;20112;-74
2021/07/17 03:18:08;;;;;;;27.23;15.80;;;;;;;20.85;72.50;98393.22;5101849;28;20020;-74
2021/07/17 03:20:33;;;;;;;24.60;15.27;;;;;;;20.80;72.70;98395.13;5100945;28;20058;-74
2021/07/17 03:22:59;;;;;;;27.88;16.35;;;;;;;20.74;72.80;98390.97;5103208;28;20073;-74
2021/07/17 03:25:24;;;;;;;28.50;16.73;;;;;;;20.71;72.61;98386.13;5101720;28;20370;-74
2021/07/17 03:27:49;;;;;;;23.23;16.45;;;;;;;20.66;72.79;98384.44;5101347;28;20038;-74
2021/07/17 03:30:16;;;;;;;26.50;16.20;;;;;;;20.64;73.03;98383.19;5102830;28;20031;-73
2021/07/17 03:32:41;;;;;;;28.48;16.08;;;;;;;20.63;72.76;98384.34;5101021;28;20047;-73
2021/07/17 03:35:07;;;;;;;31.60;17.88;;;;;;;20.61;73.02;98383.91;5101857;28;20015;-73
2021/07/17 03:37:32;;;;;;;28.13;18.50;;;;;;;20.58;72.71;98385.47;5101319;28;20024;-73
2021/07/17 03:39:58;;;;;;;33.40;17.23;;;;;;;20.55;72.90;98388.97;5100676;28;20024;-73
2021/07/17 03:42:23;;;;;;;30.83;16.98;;;;;;;20.47;72.84;98395.56;5101848;28;20036;-73
2021/07/17 03:44:49;;;;;;;25.20;15.80;;;;;;;20.44;72.93;98397.09;5101010;28;20077;-74
2021/07/17 03:47:15;;;;;;;23.65;15.90;;;;;;;20.45;73.17;98403.47;5100682;28;20106;-73
2021/07/17 03:49:40;;;;;;;27.23;16.50;;;;;;;20.46;73.16;98405.91;5102516;28;20034;-73
2021/07/17 03:52:06;;;;;;;26.92;16.40;;;;;;;20.45;73.37;98404.28;5101647;28;20489;-73
2021/07/17 03:54:32;;;;;;;24.85;15.88;;;;;;;20.50;73.33;98415.16;5100788;28;20020;-73
2021/07/17 03:56:57;;;;;;;28.20;16.30;;;;;;;20.52;73.38;98404.47;5102672;28;20031;-73
2021/07/17 03:59:22;;;;;;;25.88;16.48;;;;;;;20.56;73.40;98412.88;5099636;28;20024;-73
2021/07/17 04:01:48;;;;;;;25.67;16.27;;;;;;;20.57;73.40;98411.72;5100975;28;20052;-74
2021/07/17 04:04:13;;;;;;;25.15;16.20;;;;;;;20.59;73.39;98416.91;5102484;28;20028;-73
2021/07/17 04:06:40;;;;;;;26.02;16.27;;;;;;;20.59;73.35;98420.50;5097303;28;20085;-73
2021/07/17 04:09:06;;;;;;;25.60;16.67;;;;;;;20.60;73.51;98418.53;5101451;28;20440;-73
2021/07/17 04:11:31;;;;;;;27.63;16.55;;;;;;;20.61;73.44;98418.16;5102276;28;20115;-73
2021/07/17 04:13:58;;;;;;;24.30;15.80;;;;;;;20.62;73.41;98419.78;5100043;28;20109;-73
2021/07/17 04:16:23;;;;;;;21.23;15.00;;;;;;;20.63;73.51;98423.38;5099778;28;20031;-73
2021/07/17 04:18:48;;;;;;;26.88;15.85;;;;;;;20.70;73.45;98414.38;5100628;28;20386;-73
2021/07/17 04:21:14;;;;;;;23.23;15.27;;;;;;;20.70;73.53;98414.38;5099877;28;20107;-73
2021/07/17 04:23:40;;;;;;;24.80;15.82;;;;;;;20.73;73.59;98416.44;5101623;28;20447;-73
2021/07/17 04:26:08;;;;;;;27.45;15.68;;;;;;;20.78;73.59;98424.53;5101433;28;20031;-73
2021/07/17 04:28:34;;;;;;;26.30;15.35;;;;;;;20.81;73.50;98424.59;5100032;28;20103;-73
2021/07/17 04:31:00;;;;;;;25.08;15.75;;;;;;;20.85;73.43;98429.44;5105570;28;20027;-73
2021/07/17 04:33:26;;;;;;;30.65;15.70;;;;;;;20.88;73.26;98428.72;5105451;28;20031;-73
2021/07/17 04:35:51;;;;;;;24.58;16.10;;;;;;;20.93;73.51;98429.22;5102978;28;20024;-73
2021/07/17 04:38:17;;;;;;;28.15;15.90;;;;;;;20.96;73.46;98428.50;5106218;28;20023;-73
2021/07/17 04:40:42;;;;;;;30.27;16.88;;;;;;;21.01;73.63;98427.38;5104945;28;20381;-74
2021/07/17 04:43:07;;;;;;;27.50;15.40;;;;;;;21.02;73.28;98425.41;5104642;28;20022;-73
2021/07/17 04:45:33;;;;;;;26.23;16.23;;;;;;;21.02;73.49;98426.19;5105899;28;20031;-74
2021/07/17 04:48:03;;;;;;;27.40;15.98;;;;;;;21.02;73.32;98425.41;5104199;28;20031;-73
2021/07/17 04:50:29;;;;;;;27.15;16.77;;;;;;;21.02;73.18;98425.41;5104090;28;20066;-73
2021/07/17 04:52:54;;;;;;;31.20;17.30;;;;;;;21.06;73.67;98432.66;5105737;28;20051;-73
2021/07/17 04:55:19;;;;;;;26.38;15.88;;;;;;;21.07;73.22;98422.31;5104063;28;20020;-73
2021/07/17 04:57:45;;;;;;;31.73;17.88;;;;;;;21.04;73.60;98423.06;5104508;28;20496;-73
2021/07/17 05:00:12;;;;;;;28.08;16.52;;;;;;;21.06;73.56;98421.50;5104217;28;20077;-74
2021/07/17 05:02:51;;;;;;;32.50;16.08;;;;;;;21.06;73.48;98415.94;5100620;28;20051;-71
2021/07/17 05:05:18;;;;;;;27.48;17.33;;;;;;;21.10;73.74;98410.44;5100733;28;20020;-71
2021/07/17 05:07:48;;;;;;;24.40;16.38;;;;;;;21.08;73.46;98410.78;5104495;28;20028;-72
2021/07/17 05:10:14;;;;;;;;;;;;;;;21.05;73.35;98413.53;5105558;28;20020;-72
2021/07/17 05:12:40;;;;;;;27.88;16.67;;;;;;;21.03;73.81;98411.09;5103256;28;19916;-74
2021/07/17 05:15:10;;;;;;;28.85;16.50;;;;;;;21.02;73.46;98406.69;5102813;28;20024;-74
2021/07/17 05:17:36;;;;;;;29.85;17.10;;;;;;;21.06;73.56;98406.78;5105132;28;20103;-74
2021/07/17 05:20:02;;;;;;;27.35;17.42;;;;;;;21.10;73.78;98400.06;5103408;28;20123;-72
2021/07/17 05:22:28;;;;;;;32.10;17.15;;;;;;;21.12;73.78;98399.72;5103536;28;20024;-72
2021/07/17 05:24:54;;;;;;;28.02;16.85;;;;;;;21.10;73.84;98393.72;5105021;28;20418;-72
2021/07/17 05:27:19;;;;;;;26.92;15.93;;;;;;;21.08;73.86;98398.84;5102978;28;20028;-72
2021/07/17 05:29:47;;;;;;;25.42;16.08;;;;;;;21.07;74.11;98400.81;5103800;28;20024;-73
2021/07/17 05:32:13;;;;;;;29.15;16.90;;;;;;;21.07;74.13;98400.81;5104991;28;20505;-73
2021/07/17 05:34:40;;;;;;;26.52;16.45;;;;;;;21.09;74.75;98394.88;5102837;28;20044;-73
2021/07/17 05:37:06;;;;;;;29.52;17.08;;;;;;;21.05;74.67;98402.38;5103647;28;20012;-73
2021/07/17 05:39:32;;;;;;;26.05;17.17;;;;;;;21.02;75.01;98398.31;5104536;28;20020;-73
2021/07/17 05:41:57;;;;;;;27.60;16.77;;;;;;;21.01;74.54;98395.91;5101858;28;20028;-72
2021/07/17 05:44:22;;;;;;;30.02;18.27;;;;;;;21.04;75.11;98407.13;5103795;28;20123;-73
2021/07/17 05:46:48;;;;;;;26.80;17.08;;;;;;;21.05;74.78;98407.94;5103940;28;20031;-73
2021/07/17 05:49:13;;;;;;;23.75;16.25;;;;;;;21.07;74.63;98402.81;5102334;28;20028;-73
2021/07/17 05:51:38;;;;;;;30.17;16.80;;;;;;;21.14;74.54;98408.53;5104274;28;20376;-73
2021/07/17 05:54:04;;;;;;;26.27;17.80;;;;;;;21.24;74.84;98415.47;5103103;28;20112;-73
2021/07/17 05:56:29;;;;;;;28.38;16.17;;;;;;;21.31;75.02;98420.38;5103110;28;20031;-73
2021/07/17 05:58:54;;;;;;;28.40;16.38;;;;;;;21.35;74.51;98427.66;5104498;28;20442;-74
2021/07/17 06:01:20;;;;;;;23.30;15.70;;;;;;;21.37;74.73;98428.09;5102787;28;20434;-73
2021/07/17 06:03:46;;;;;;;24.48;16.02;;;;;;;21.43;74.62;98431.38;5103140;28;20046;-73
2021/07/17 06:06:12;;;;;;;26.92;16.08;;;;;;;21.51;74.78;98437.88;5104163;28;20031;-73
2021/07/17 06:08:37;;;;;;;27.15;15.23;;;;;;;21.58;74.64;98443.59;5102193;28;20028;-72
2021/07/17 06:11:03;;;;;;;23.85;16.17;;;;;;;21.61;74.59;98444.84;5103432;28;20103;-74
2021/07/17 06:13:28;;;;;;;20.83;14.75;;;;;;;21.68;74.60;98442.22;5103567;28;20570;-74
2021/07/17 06:15:53;;;;;;;29.83;16.60;;;;;;;21.71;74.59;98439.50;5101898;28;20020;-74
2021/07/17 06:18:19;;;;;;;29.65;16.67;;;;;;;21.77;74.35;98442.78;5102793;28;20034;-73
2021/07/17 06:20:44;;;;;;;29.85;17.33;;;;;;;21.82;74.61;98439.69;5102918;28;20024;-73
2021/07/17 06:23:10;;;;;;;29.70;16.88;;;;;;;21.85;74.57;98427.78;5102378;28;20023;-74
2021/07/17 06:25:35;;;;;;;30.27;18.15;;;;;;;21.89;74.78;98427.81;5103883;28;20023;-73
2021/07/17 06:28:01;;;;;;;28.77;15.98;;;;;;;21.95;74.32;98437.50;5102218;28;20500;-74
2021/07/17 06:30:26;;;;;;;26.90;15.88;;;;;;;22.03;74.35;98432.03;5102551;28;20103;-73
2021/07/17 06:32:51;;;;;;;23.65;14.07;;;;;;;22.12;74.09;98429.81;5103475;28;20538;-74
2021/07/17 06:35:17;;;;;;;26.15;15.60;;;;;;;22.14;73.99;98433.81;5107819;28;20039;-74
2021/07/17 06:37:42;;;;;;;21.58;14.43;;;;;;;22.23;73.77;98429.97;5112853;28;20028;-73
2021/07/17 06:40:13;;;;;;;21.75;14.05;;;;;;;22.32;73.88;98438.88;5114405;28;20416;-74
2021/07/17 06:42:47;;;;;;;21.25;14.00;;;;;;;22.38;73.73;98433.78;5114238;28;20024;-74
2021/07/17 06:45:13;;;;;;;22.20;14.07;;;;;;;22.42;73.62;98432.63;5114095;27;20469;-74
2021/07/17 06:47:38;;;;;;;21.75;13.35;;;;;;;22.49;73.40;98431.97;5114035;28;20059;-73
2021/07/17 06:50:06;;;;;;;23.20;14.57;;;;;;;22.56;73.39;98425.66;5113802;28;20070;-74
2021/07/17 06:52:31;;;;;;;21.90;13.30;;;;;;;22.63;73.18;98422.97;5112952;27;20066;-73
2021/07/17 06:54:57;;;;;;;23.27;13.02;;;;;;;22.71;73.25;98427.50;5113732;28;20473;-73
2021/07/17 06:57:22;;;;;;;21.48;12.30;;;;;;;22.79;73.03;98422.00;5113899;28;20024;-73
2021/07/17 06:59:47;;;;;;;20.73;13.05;;;;;;;22.86;72.64;98428.47;5113505;28;20015;-73
2021/07/17 07:02:13;;;;;;;25.17;13.20;;;;;;;22.93;72.74;98427.75;5113579;28;20043;-73
2021/07/17 07:04:38;;;;;;;22.45;13.13;;;;;;;23.02;72.64;98433.06;5113653;28;20027;-69
2021/07/17 07:07:03;;;;;;;24.20;12.60;;;;;;;23.10;72.66;98429.16;5113511;28;20041;-72
2021/07/17 07:09:29;;;;;;;17.50;11.38;;;;;;;23.18;72.30;98433.66;5112005;28;20035;-73
2021/07/17 07:11:55;;;;;;;20.80;11.05;;;;;;;23.22;72.01;98430.94;5113340;28;20015;-73
2021/07/17 07:14:20;;;;;;;16.70;10.98;;;;;;;23.32;71.52;98427.44;5113292;28;20051;-74
2021/07/17 07:16:46;;;;;;;17.42;11.50;;;;;;;23.36;71.26;98423.88;5113546;28;20027;-73
2021/07/17 07:19:11;;;;;;;16.80;9.68;;;;;;;23.39;71.32;98423.94;5111687;28;20485;-73
2021/07/17 07:21:36;;;;;;;16.63;8.88;;;;;;;23.43;70.61;98424.78;5113336;28;20019;-73
2021/07/17 07:24:02;;;;;;;18.92;9.20;;;;;;;23.48;70.23;98424.41;5112056;28;20028;-73
2021/07/17 07:26:29;;;;;;;14.98;8.98;;;;;;;23.55;70.08;98425.66;5113136;28;20389;-73
2021/07/17 07:28:57;;;;;;;12.55;7.97;;;;;;;23.62;69.22;98420.16;5113388;28;20023;-74
2021/07/17 07:31:24;;;;;;;14.57;8.05;;;;;;;23.68;69.81;98421.41;5113275;28;20058;-76
2021/07/17 07:33:50;;;;;;;14.57;9.50;;;;;;;23.71;69.28;98420.63;5113223;28;20031;-75
2021/07/17 07:36:15;;;;;;;15.93;9.15;;;;;;;23.78;69.33;98419.88;5113452;28;20445;-75
2021/07/17 07:38:40;;;;;;;16.52;8.73;;;;;;;23.84;68.70;98425.97;5113482;28;20522;-74
2021/07/17 07:41:06;;;;;;;18.08;8.93;;;;;;;23.88;69.09;98427.59;5113339;28;20110;-74
2021/07/17 07:43:31;;;;;;;12.73;8.98;;;;;;;23.94;68.83;98422.41;5113361;28;20059;-74
2021/07/17 07:45:57;;;;;;;13.98;8.95;;;;;;;24.00;68.94;98423.72;5113084;28;20446;-74
2021/07/17 07:48:22;;;;;;;15.23;8.93;;;;;;;24.06;68.40;98419.34;5113394;28;20070;-74
2021/07/17 07:50:47;;;;;;;14.82;9.15;;;;;;;24.16;68.61;98419.84;5113103;28;20533;-73
2021/07/17 07:53:13;;;;;;;13.20;8.80;;;;;;;24.21;67.53;98419.47;5113021;28;20057;-71
2021/07/17 07:55:38;;;;;;;12.27;8.40;;;;;;;24.26;67.70;98421.09;5112942;28;20032;-70
2021/07/17 07:58:03;;;;;;;12.88;8.85;;;;;;;24.31;67.24;98423.53;5112895;28;20028;-70
2021/07/17 08:00:29;;;;;;;13.63;8.80;;;;;;;24.37;67.29;98428.38;5111673;28;20107;-71
2021/07/17 08:02:54;;;;;;;13.45;8.13;;;;;;;24.45;67.08;98434.84;5112644;28;20181;-71
2021/07/17 08:05:20;;;;;;;16.48;7.72;;;;;;;24.57;67.33;98430.91;5112705;28;20374;-72
2021/07/17 08:07:45;;;;;;;18.60;9.60;;;;;;;24.67;67.17;98430.16;5113079;28;20027;-72
2021/07/17 08:10:11;;;;;;;16.27;8.43;;;;;;;24.78;66.60;98427.44;5112941;28;20080;-72
2021/07/17 08:12:36;;;;;;;13.35;9.05;;;;;;;24.83;66.15;98429.06;5112778;28;20046;-71
2021/07/17 08:15:02;;;;;;;12.85;8.90;;;;;;;24.90;65.63;98417.88;5112945;28;20469;-73
2021/07/17 08:17:28;;;;;;;14.55;8.80;;;;;;;24.94;65.94;98429.94;5111693;28;20028;-73
2021/07/17 08:19:53;;;;;;;13.82;8.63;;;;;;;24.98;65.97;98418.72;5112845;28;20466;-72
2021/07/17 08:22:18;;;;;;;15.88;8.93;;;;;;;25.05;65.66;98423.56;5112807;28;20058;-69
2021/07/17 08:24:44;;;;;;;14.88;9.27;;;;;;;25.14;66.06;98420.38;5112815;28;20055;-70
2021/07/17 08:27:09;;;;;;;14.90;8.73;;;;;;;25.26;65.98;98425.63;5112623;28;20032;-68
2021/07/17 08:29:35;;;;;;;14.40;8.95;;;;;;;25.35;65.99;98423.22;5113023;28;20024;-76
2021/07/17 08:32:00;;;;;;;14.73;8.20;;;;;;;25.50;65.68;98428.91;5112946;28;20028;-76
2021/07/17 08:34:25;;;;;;;13.85;8.48;;;;;;;25.57;65.50;98426.13;5112972;28;20162;-74
2021/07/17 08:36:50;;;;;;;12.93;8.77;;;;;;;25.63;64.54;98427.34;5113269;28;20047;-79
2021/07/17 08:39:16;;;;;;;13.85;8.65;;;;;;;25.65;64.43;98424.13;5113468;28;20457;-77
2021/07/17 08:41:47;;;;;;;13.77;8.52;;;;;;;25.70;64.50;98434.97;5113098;28;20030;-82
2021/07/17 08:44:12;;;;;;;13.95;8.43;;;;;;;25.75;62.95;98436.56;5112638;28;20058;-76
2021/07/17 08:46:39;;;;;;;14.80;8.23;;;;;;;25.69;63.27;98431.34;5112181;28;20051;-77
2021/07/17 08:49:05;;;;;;;15.90;10.60;;;;;;;25.67;62.23;98432.97;5112469;28;20107;-82
2021/07/17 08:51:30;;;;;;;14.48;9.02;;;;;;;25.67;62.38;98427.34;5113610;28;20054;-83
2021/07/17 08:53:56;;;;;;;12.38;8.43;;;;;;;25.71;62.54;98428.16;5113650;28;20024;-82
2021/07/17 08:56:22;;;;;;;13.25;8.18;;;;;;;25.77;61.89;98428.53;5112401;28;20059;-81
2021/07/17 08:58:48;;;;;;;13.07;8.43;;;;;;;25.78;59.57;98425.34;5112223;28;20503;-81
2021/07/17 09:01:15;;;;;;;15.82;8.75;;;;;;;25.79;61.72;98426.16;5110894;28;20031;-82
2021/07/17 09:03:40;;;;;;;12.82;7.90;;;;;;;25.85;61.51;98430.16;5111917;28;20123;-81
2021/07/17 09:06:06;;;;;;;16.92;8.18;;;;;;;25.88;61.54;98423.75;5112281;28;20512;-76
2021/07/17 09:08:31;;;;;;;17.67;8.38;;;;;;;25.90;61.40;98424.16;5112272;28;20031;-82
2021/07/17 09:10:56;;;;;;;15.35;9.73;;;;;;;25.99;61.65;98423.75;5112248;28;20063;-78
2021/07/17 09:13:26;;;;;;;14.32;8.82;;;;;;;26.07;60.78;98428.16;5112175;28;20034;-80
2021/07/17 09:15:51;;;;;;;12.02;7.93;;;;;;;26.09;58.83;98424.94;5113104;28;20058;-80
2021/07/17 09:18:40;;;;;;;10.95;7.63;;;;;;;26.04;58.13;98426.16;5116067;28;20020;-83
2021/07/17 09:21:37;;;;;;;12.10;7.65;;;;;;;26.00;58.75;98426.16;5115819;28;20590;-74
2021/07/17 09:24:05;;;;;;;14.23;7.25;;;;;;;26.00;58.75;98425.34;5096722;28;20556;-74
2021/07/17 09:26:36;;;;;;;16.35;7.07;;;;;;;26.02;58.50;98417.31;5095361;28;20131;-75
2021/07/17 09:29:06;;;;;;;13.20;7.80;;;;;;;26.04;57.18;98422.56;5095327;28;20077;-75
2021/07/17 09:31:34;;;;;;;12.80;7.47;;;;;;;26.07;58.79;98425.34;5089100;28;20035;-76
2021/07/17 09:34:05;;;;;;;13.40;7.90;;;;;;;26.10;58.90;98421.75;5087340;28;20039;-77
2021/07/17 09:36:32;;;;;;;15.00;8.05;;;;;;;26.16;58.66;98422.16;5074767;28;20029;-73
2021/07/17 09:38:58;;;;;;;15.18;7.63;;;;;;;26.22;59.20;98422.56;5092847;28;20036;-77
2021/07/17 09:41:23;;;;;;;12.20;7.25;;;;;;;26.25;58.23;98421.75;5094520;28;20032;-75
2021/07/17 09:44:03;;;;;;;10.98;7.30;;;;;;;26.29;58.61;98422.53;5093063;28;20028;-75
2021/07/17 09:46:31;;;;;;;13.80;7.43;;;;;;;26.31;58.66;98420.13;5093510;28;20031;-74
2021/07/17 09:49:01;;;;;;;12.63;7.47;;;;;;;26.39;58.77;98416.09;5093540;28;20035;-72
2021/07/17 09:51:36;;;;;;;13.38;7.95;;;;;;;26.47;58.81;98413.28;5093608;28;20420;-71
2021/07/17 09:54:07;;;;;;;14.93;8.68;;;;;;;26.53;58.91;98418.06;5093340;28;20062;-71
2021/07/17 09:56:35;;;;;;;13.35;7.28;;;;;;;26.64;58.63;98408.81;5093705;28;20024;-66
2021/07/17 09:59:03;;;;;;;14.18;8.77;;;;;;;26.71;55.16;98420.84;5093943;28;20024;-67
2021/07/17 10:01:32;;;;;;;15.23;8.20;;;;;;;26.75;57.39;98412.41;5091843;28;20062;-67
2021/07/17 10:04:00;;;;;;;;;;;;;;;26.84;57.66;98406.38;5081582;28;20028;-69
2021/07/17 10:06:38;;;;;;;15.02;8.88;;;;;;;26.89;57.73;98401.13;5072296;28;19912;-68
2021/07/17 10:09:28;;;;;;;14.20;9.73;;;;;;;27.04;58.18;98409.50;5071129;28;20565;-69
2021/07/17 10:12:06;;;;;;;14.60;8.95;;;;;;;27.17;57.65;98401.38;5071324;28;20135;-70
2021/07/17 10:14:37;;;;;;;14.55;9.82;;;;;;;27.29;57.64;98400.91;5072546;28;20139;-71
2021/07/17 10:17:11;;;;;;;16.70;10.32;;;;;;;27.44;57.35;98400.84;5073345;28;20478;-69
2021/07/17 10:19:38;;;;;;;27.27;19.13;;;;;;;27.53;57.39;98400.41;5073439;28;20031;-69
2021/07/17 10:22:05;;;;;;;16.60;9.43;;;;;;;27.57;56.08;98404.00;5073364;28;20116;-74
2021/07/17 10:24:32;;;;;;;15.68;8.85;;;;;;;27.61;56.50;98396.34;5072132;28;20029;-76
2021/07/17 10:26:59;;;;;;;13.32;8.05;;;;;;;27.66;56.43;98392.25;5073353;28;20035;-75
2021/07/17 10:29:26;;;;;;;11.57;8.43;;;;;;;27.75;56.83;98395.41;5073953;28;20383;-75
2021/07/17 10:31:52;;;;;;;17.65;9.25;;;;;;;27.84;56.17;98392.94;5073181;28;20042;-75
2021/07/17 10:34:19;;;;;;;16.02;9.38;;;;;;;27.89;54.23;98392.50;5073234;28;20107;-75
2021/07/17 10:36:52;;;;;;;14.77;9.75;;;;;;;27.91;55.33;98386.44;5073366;28;20039;-75
2021/07/17 10:39:23;;;;;;;12.80;8.27;;;;;;;27.99;54.78;98385.16;5073316;28;20028;-74
2021/07/17 10:41:49;;;;;;;14.18;8.50;;;;;;;28.03;54.95;98383.09;5073263;28;20032;-75
2021/07/17 10:44:15;;;;;;;14.70;7.57;;;;;;;28.09;53.30;98383.44;5073120;28;20108;-75
2021/07/17 10:46:42;;;;;;;15.70;8.23;;;;;;;28.08;52.29;98379.03;5073022;28;20036;-75
2021/07/17 10:49:09;;;;;;;13.13;7.43;;;;;;;28.02;53.44;98377.88;5073268;28;20039;-75
2021/07/17 10:51:37;;;;;;;16.70;10.18;;;;;;;28.04;53.97;98376.25;5072911;28;20082;-75
2021/07/17 10:54:06;;;;;;;13.90;8.60;;;;;;;28.11;53.27;98377.41;5072898;28;20055;-77
2021/07/17 10:56:36;;;;;;;16.05;8.88;;;;;;;28.18;53.56;98372.53;5071739;28;20046;-76
2021/07/17 10:59:12;;;;;;;14.02;8.77;;;;;;;28.24;54.01;98386.97;5073168;28;20385;-77
2021/07/17 11:01:56;;;;;;;12.57;8.60;;;;;;;28.28;51.46;98378.47;5072494;28;20029;-77
2021/07/17 11:04:45;;;;;;;18.17;8.95;;;;;;;28.22;51.33;98369.66;5072675;28;20036;-77
2021/07/17 11:07:16;;;;;;;;;;;;;;;28.16;52.46;98368.50;5073151;28;20025;-78
2021/07/17 11:09:51;;;;;;;12.77;8.68;;;;;;;28.15;52.59;98364.09;5072491;28;20006;-78
2021/07/17 11:12:21;;;;;;;16.48;9.77;;;;;;;28.25;53.00;98363.19;5072363;28;20039;-77
2021/07/17 11:14:47;;;;;;;16.25;10.70;;;;;;;28.40;52.98;98375.09;5072238;28;20036;-77
2021/07/17 11:17:12;;;;;;;15.55;10.18;;;;;;;28.54;53.38;98371.31;5072579;28;20017;-77
2021/07/17 11:19:38;;;;;;;16.98;10.15;;;;;;;28.65;52.65;98362.75;5072530;28;20017;-78